createdAt,value
2017-05-30T04:09:08.595Z,10.00
2017-05-30T04:10:08.629Z,10.20
2017-05-30T04:11:08.552Z,10.20
2017-05-30T04:12:08.432Z,10.30
2017-05-30T04:13:08.410Z,10.00
2017-05-30T04:14:08.336Z,9.80
2017-05-30T04:15:08.304Z,9.70
2017-05-30T04:16:08.279Z,9.60
2017-05-30T04:17:08.185Z,9.60
2017-05-30T04:18:08.039Z,9.60
2017-05-30T04:19:07.902Z,9.70
2017-05-30T04:20:07.766Z,9.80
2017-05-30T04:21:07.676Z,10.00
2017-05-30T04:22:07.554Z,10.20
2017-05-30T04:23:07.483Z,10.40
2017-05-30T04:24:07.412Z,10.50
2017-05-30T04:25:07.407Z,10.50
2017-05-30T04:26:07.332Z,10.60
2017-05-30T04:27:07.236Z,10.60
2017-05-30T04:28:07.120Z,10.70
2017-05-30T04:29:06.976Z,10.70
2017-05-30T04:30:06.885Z,10.80
2017-05-30T04:31:06.730Z,11.00
2017-05-30T04:32:06.586Z,11.00
2017-05-30T04:33:06.530Z,11.10
2017-05-30T04:34:06.420Z,11.20
2017-05-30T04:35:06.345Z,11.30
2017-05-30T04:36:06.271Z,11.30
2017-05-30T04:37:06.143Z,11.40
2017-05-30T04:38:06.010Z,11.30
2017-05-30T04:39:06.302Z,11.20
2017-05-30T04:40:06.203Z,11.10
2017-05-30T04:41:06.099Z,11.10
2017-05-30T04:42:05.944Z,11.00
2017-05-30T04:43:05.811Z,11.00
2017-05-30T04:44:05.710Z,11.10
2017-05-30T04:45:05.552Z,11.20
2017-05-30T04:46:05.433Z,11.40
2017-05-30T04:47:05.394Z,11.50
2017-05-30T04:48:05.254Z,11.70
2017-05-30T04:49:05.139Z,11.90
2017-05-30T04:50:05.008Z,12.00
2017-05-30T04:51:04.886Z,12.10
2017-05-30T04:52:04.867Z,12.30
2017-05-30T04:53:04.755Z,12.50
2017-05-30T04:54:04.705Z,12.60
2017-05-30T04:55:04.691Z,12.70
2017-05-30T04:56:04.610Z,12.70
2017-05-30T04:57:04.507Z,12.90
2017-05-30T04:58:04.379Z,13.00
2017-05-30T04:59:04.220Z,13.00
2017-05-30T05:00:04.079Z,13.10
2017-05-30T05:01:04.021Z,13.40
2017-05-30T05:02:03.963Z,13.80
2017-05-30T05:03:03.859Z,14.20
2017-05-30T05:04:03.760Z,14.80
2017-05-30T05:05:03.721Z,15.40
2017-05-30T05:06:18.885Z,16.00
2017-05-30T05:07:18.816Z,16.90
2017-05-30T05:08:18.755Z,17.30
2017-05-30T05:09:18.669Z,17.60
2017-05-30T05:10:18.575Z,18.00
2017-05-30T05:11:18.542Z,18.50
2017-05-30T05:12:18.530Z,19.20
2017-05-30T05:13:18.486Z,19.50
2017-05-30T05:14:18.392Z,19.80
2017-05-30T05:15:18.342Z,20.10
2017-05-30T05:16:18.316Z,20.50
2017-05-30T05:17:18.220Z,20.80
2017-05-30T05:18:18.119Z,21.10
2017-05-30T05:19:18.054Z,21.40
2017-05-30T05:20:17.954Z,21.60
2017-05-30T05:21:17.871Z,21.90
2017-05-30T05:22:17.746Z,22.00
2017-05-30T05:23:17.632Z,22.40
2017-05-30T05:24:17.509Z,22.60
2017-05-30T05:25:17.423Z,22.80
2017-05-30T05:26:17.258Z,22.80
2017-05-30T05:27:17.196Z,23.20
2017-05-30T05:28:17.042Z,23.40
2017-05-30T05:29:16.882Z,23.80
2017-05-30T05:30:16.789Z,23.90
2017-05-30T05:31:16.649Z,23.90
2017-05-30T05:32:16.486Z,24.30
2017-05-30T05:33:16.364Z,24.20
2017-05-30T05:34:16.242Z,24.50
2017-05-30T05:35:16.151Z,24.30
2017-05-30T05:36:16.006Z,24.70
2017-05-30T05:37:16.028Z,24.80
2017-05-30T05:38:15.995Z,24.80
2017-05-30T05:39:15.838Z,24.80
2017-05-30T05:40:15.746Z,25.40
2017-05-30T05:41:15.599Z,25.30
2017-05-30T05:42:15.453Z,25.70
2017-05-30T05:43:15.347Z,25.30
2017-05-30T05:44:15.300Z,25.80
2017-05-30T05:45:15.180Z,25.50
2017-05-30T05:46:15.067Z,25.50
2017-05-30T05:47:14.914Z,25.40
2017-05-30T05:48:14.831Z,25.70
2017-05-30T05:49:14.792Z,25.40
2017-05-30T05:50:14.703Z,25.50
2017-05-30T05:51:53.892Z,25.90
2017-05-30T05:52:53.810Z,25.60
2017-05-30T05:53:53.724Z,25.50
2017-05-30T05:54:53.581Z,25.40
2017-05-30T05:55:53.427Z,25.50
2017-05-30T05:56:53.347Z,26.00
2017-05-30T05:57:53.253Z,25.80
2017-05-30T05:58:53.152Z,25.70
2017-05-30T05:59:53.053Z,25.70
2017-05-30T06:00:52.951Z,26.20
2017-05-30T06:01:52.837Z,26.30
2017-05-30T06:02:52.729Z,26.60
2017-05-30T06:03:52.640Z,26.60
2017-05-30T06:04:52.492Z,26.60
2017-05-30T06:05:52.336Z,26.60
2017-05-30T06:06:52.276Z,26.80
2017-05-30T06:07:52.144Z,27.10
2017-05-30T06:08:52.065Z,26.90
2017-05-30T06:09:51.955Z,26.80
2017-05-30T06:10:51.935Z,26.70
2017-05-30T06:11:51.772Z,26.80
2017-05-30T06:12:51.681Z,27.00
2017-05-30T06:13:51.611Z,26.90
2017-05-30T06:14:51.542Z,26.90
2017-05-30T06:15:51.428Z,26.80
2017-05-30T06:16:51.379Z,26.70
2017-05-30T06:17:51.947Z,26.60
2017-05-30T06:18:51.827Z,26.50
2017-05-30T06:19:51.670Z,26.50
2017-05-30T06:21:08.547Z,26.30
2017-05-30T06:22:08.468Z,25.90
2017-05-30T06:23:08.434Z,25.50
2017-05-30T06:24:08.324Z,25.10
2017-05-30T06:25:08.207Z,24.70
2017-05-30T06:26:08.100Z,24.20
2017-05-30T06:27:08.051Z,23.80
2017-05-30T06:28:08.007Z,23.50
2017-05-30T06:29:07.893Z,23.30
2017-05-30T06:30:07.885Z,23.00
2017-05-30T06:31:07.799Z,22.80
2017-05-30T06:32:07.687Z,22.70
2017-05-30T06:33:07.582Z,22.50
2017-05-30T06:34:07.456Z,22.40
2017-05-30T06:35:07.348Z,22.30
2017-05-30T06:43:35.238Z,22.20
2017-05-30T06:44:35.132Z,22.20
2017-05-30T06:45:35.066Z,22.20
2017-05-30T06:46:34.979Z,22.20
2017-05-30T06:47:34.905Z,22.10
2017-05-30T06:48:34.784Z,21.80
2017-05-30T06:49:34.724Z,21.80
2017-05-30T06:50:34.647Z,21.90
2017-05-30T06:51:34.567Z,22.00
2017-05-30T06:52:34.585Z,22.10
2017-05-30T06:53:34.483Z,22.10
2017-05-30T06:54:34.399Z,22.20
2017-05-30T06:55:34.303Z,22.30
2017-05-30T06:56:34.148Z,22.30
2017-05-30T06:57:34.005Z,22.40
2017-05-30T06:58:33.925Z,22.50
2017-05-30T06:59:33.828Z,22.60
2017-05-30T07:00:33.768Z,22.70
2017-05-30T07:01:33.642Z,22.70
2017-05-30T07:02:33.546Z,22.70
2017-05-30T07:03:33.487Z,22.80
2017-05-30T07:04:33.440Z,22.70
2017-05-30T07:05:33.307Z,22.80
2017-05-30T07:06:33.234Z,22.90
2017-05-30T07:07:33.101Z,23.00
2017-05-30T07:08:32.976Z,23.00
2017-05-30T07:09:32.890Z,23.00
2017-05-30T07:10:32.746Z,23.10
2017-05-30T07:11:32.612Z,23.20
2017-05-30T07:12:32.491Z,23.30
2017-05-30T07:13:32.371Z,23.40
2017-05-30T07:14:32.334Z,23.50
2017-05-30T07:15:32.260Z,23.50
2017-05-30T07:16:32.125Z,23.60
2017-05-30T07:17:32.018Z,23.50
2017-05-30T07:18:32.202Z,23.60
2017-05-30T07:19:32.072Z,23.60
2017-05-30T07:20:32.039Z,23.60
2017-05-30T07:21:31.929Z,23.70
2017-05-30T07:22:31.841Z,23.70
2017-05-30T07:23:31.736Z,23.80
2017-05-30T07:24:31.622Z,23.80
2017-05-30T07:25:31.655Z,24.00
2017-05-30T07:26:31.581Z,24.00
2017-05-30T07:27:31.516Z,24.10
2017-05-30T07:28:31.452Z,24.10
2017-05-30T07:29:31.303Z,24.10
2017-05-30T07:30:31.222Z,24.30
2017-05-30T07:31:31.081Z,24.30
2017-05-30T07:32:31.018Z,24.40
2017-05-30T07:33:30.904Z,24.40
2017-05-30T07:34:30.794Z,24.50
2017-05-30T07:35:30.750Z,24.60
2017-05-30T07:38:39.285Z,24.60
2017-05-30T07:39:39.180Z,24.70
2017-05-30T07:40:39.099Z,24.60
2017-05-30T07:41:38.995Z,24.50
2017-05-30T07:42:38.912Z,24.60
2017-05-30T07:43:38.795Z,24.40
2017-05-30T07:44:38.743Z,24.40
2017-05-30T07:45:38.640Z,24.50
2017-05-30T07:46:39.101Z,24.60
2017-05-30T07:47:39.001Z,24.70
2017-05-30T07:48:38.887Z,24.80
2017-05-30T07:49:38.822Z,24.90
2017-05-30T07:52:12.526Z,25.00
2017-05-30T07:53:12.432Z,25.10
2017-05-30T07:54:12.350Z,25.20
2017-05-30T07:55:12.233Z,25.30
2017-05-30T07:56:12.083Z,25.40
2017-05-30T07:57:11.943Z,25.40
2017-05-30T07:58:11.990Z,25.50
2017-05-30T07:59:11.837Z,25.50
2017-05-30T08:00:11.734Z,25.50
2017-05-30T08:01:11.608Z,25.70
2017-05-30T08:02:11.493Z,25.70
2017-05-30T08:03:11.373Z,25.80
2017-05-30T08:04:11.298Z,25.70
2017-05-30T08:05:11.169Z,25.80
2017-05-30T08:09:55.335Z,25.70
2017-05-30T08:10:55.259Z,25.80
2017-05-30T08:11:55.194Z,25.80
2017-05-30T08:12:55.160Z,25.80
2017-05-30T08:13:55.073Z,25.70
2017-05-30T08:14:54.961Z,25.80
2017-05-30T08:15:54.837Z,25.60
2017-05-30T08:16:54.689Z,25.50
2017-05-30T08:17:54.603Z,25.60
2017-05-30T08:18:54.492Z,25.70
2017-05-30T08:19:54.409Z,25.80
2017-05-30T08:20:54.290Z,25.90
2017-05-30T08:21:54.166Z,26.00
2017-05-30T08:22:54.051Z,26.00
2017-05-30T08:23:53.941Z,26.00
2017-05-30T08:24:53.802Z,26.10
2017-05-30T08:25:53.706Z,26.20
2017-05-30T08:26:53.626Z,26.40
2017-05-30T08:27:53.533Z,26.40
2017-05-30T08:28:53.418Z,26.50
2017-05-30T08:29:53.318Z,26.50
2017-05-30T08:30:53.224Z,26.60
2017-05-30T08:31:53.154Z,26.60
2017-05-30T08:32:53.076Z,26.70
2017-05-30T08:33:53.008Z,26.60
2017-05-30T08:34:52.897Z,26.70
2017-05-30T08:39:36.690Z,26.80
2017-05-30T08:40:36.634Z,26.80
2017-05-30T08:41:36.524Z,26.80
2017-05-30T08:42:36.368Z,26.90
2017-05-30T08:43:36.293Z,26.90
2017-05-30T08:44:36.207Z,26.90
2017-05-30T08:45:36.104Z,26.90
2017-05-30T08:46:36.026Z,27.10
2017-05-30T08:47:35.912Z,27.10
2017-05-30T08:48:35.879Z,27.20
2017-05-30T08:49:35.784Z,27.30
2017-05-30T08:50:35.701Z,27.40
2017-05-30T08:51:56.122Z,27.30
2017-05-30T08:52:55.960Z,27.50
2017-05-30T08:53:55.895Z,27.60
2017-05-30T08:54:55.778Z,27.70
2017-05-30T08:55:55.704Z,27.70
2017-05-30T08:56:55.633Z,27.70
2017-05-30T08:57:55.511Z,27.70
2017-05-30T08:58:55.467Z,27.80
2017-05-30T08:59:55.436Z,27.90
2017-05-30T09:00:55.341Z,27.80
2017-05-30T09:01:55.234Z,28.00
2017-05-30T09:02:55.146Z,27.90
2017-05-30T09:03:55.075Z,28.00
2017-05-30T09:04:54.949Z,28.00
2017-05-30T09:05:54.828Z,27.90
2017-05-30T09:07:15.335Z,27.80
2017-05-30T09:08:15.257Z,27.90
2017-05-30T09:09:15.161Z,27.90
2017-05-30T09:10:15.045Z,27.90
2017-05-30T09:11:14.943Z,28.00
2017-05-30T09:12:14.895Z,28.10
2017-05-30T09:13:14.749Z,28.10
2017-05-30T09:14:14.669Z,28.20
2017-05-30T09:15:14.648Z,28.30
2017-05-30T09:16:14.639Z,28.40
2017-05-30T09:17:14.551Z,28.40
2017-05-30T09:18:14.517Z,28.40
2017-05-30T09:19:14.377Z,28.40
2017-05-30T09:20:14.260Z,28.50
2017-05-30T09:25:34.330Z,28.50
2017-05-30T09:26:34.234Z,28.50
2017-05-30T09:27:34.093Z,28.50
2017-05-30T09:28:33.969Z,28.60
2017-05-30T09:29:33.893Z,28.60
2017-05-30T09:30:33.881Z,28.50
2017-05-30T09:31:33.766Z,28.50
2017-05-30T09:32:33.745Z,28.60
2017-05-30T09:33:33.695Z,28.60
2017-05-30T09:34:33.601Z,28.50
2017-05-30T09:35:33.516Z,28.60
2017-05-30T09:36:50.647Z,28.50
2017-05-30T09:37:50.587Z,28.40
2017-05-30T09:38:50.530Z,28.40
2017-05-30T09:39:50.483Z,28.30
2017-05-30T09:40:50.425Z,28.50
2017-05-30T09:41:50.418Z,28.60
2017-05-30T09:42:50.398Z,28.60
2017-05-30T09:43:50.325Z,28.50
2017-05-30T09:44:50.273Z,28.70
2017-05-30T09:45:50.186Z,28.80
2017-05-30T09:46:50.086Z,28.70
2017-05-30T09:47:49.993Z,28.60
2017-05-30T09:48:50.005Z,28.60
2017-05-30T09:49:50.006Z,28.70
2017-05-30T09:50:50.076Z,28.70
2017-05-30T09:59:34.485Z,28.80
2017-05-30T10:00:34.449Z,28.80
2017-05-30T10:01:34.396Z,28.90
2017-05-30T10:02:34.357Z,28.90
2017-05-30T10:03:34.296Z,28.90
2017-05-30T10:04:34.262Z,29.00
2017-05-30T10:05:34.148Z,29.00
2017-05-30T10:08:46.265Z,29.30
2017-05-30T10:09:46.243Z,29.40
2017-05-30T10:10:46.196Z,29.30
2017-05-30T10:11:47.092Z,29.20
2017-05-30T10:12:46.980Z,29.30
2017-05-30T10:13:46.887Z,29.30
2017-05-30T10:14:46.838Z,29.40
2017-05-30T10:15:46.792Z,29.30
2017-05-30T10:16:46.733Z,29.30
2017-05-30T10:17:46.661Z,29.40
2017-05-30T10:18:46.552Z,29.50
2017-05-30T10:19:46.483Z,29.40
2017-05-30T10:20:46.406Z,29.40
2017-05-30T10:29:14.255Z,29.50
2017-05-30T10:30:14.202Z,29.50
2017-05-30T10:31:14.217Z,29.40
2017-05-30T10:32:14.065Z,29.40
2017-05-30T10:33:13.923Z,29.10
2017-05-30T10:34:13.765Z,28.90
2017-05-30T10:35:13.946Z,28.80
2017-05-30T10:36:13.915Z,28.80
2017-05-30T10:39:44.435Z,28.80
2017-05-30T10:40:44.372Z,29.10
2017-05-30T10:41:44.574Z,29.30
2017-05-30T10:42:45.515Z,29.40
2017-05-30T10:43:45.817Z,29.50
2017-05-30T10:44:46.081Z,29.60
2017-05-30T10:45:48.287Z,29.50
2017-05-30T10:46:48.414Z,29.40
2017-05-30T10:47:48.639Z,29.30
2017-05-30T10:48:48.715Z,29.20
2017-05-30T10:49:48.822Z,29.20
2017-05-30T10:50:48.728Z,29.10
2017-05-30T11:05:13.027Z,29.20
2017-05-30T11:06:13.139Z,29.30
2017-05-30T11:09:38.523Z,29.30
2017-05-30T11:10:38.725Z,29.40
2017-05-30T11:11:39.676Z,29.50
2017-05-30T11:12:40.678Z,29.50
2017-05-30T11:13:41.067Z,29.40
2017-05-30T11:14:41.508Z,29.40
2017-05-30T11:15:41.961Z,29.30
2017-05-30T11:16:42.431Z,29.30
2017-05-30T11:17:42.603Z,29.20
2017-05-30T11:18:42.963Z,29.10
2017-05-30T11:19:43.514Z,29.00
2017-05-30T11:20:44.863Z,28.80
2017-05-30T11:21:45.270Z,28.70
2017-05-30T11:22:47.034Z,28.60
2017-05-30T11:23:48.049Z,28.40
2017-05-30T11:24:48.223Z,28.40
2017-05-30T11:25:49.572Z,28.40
2017-05-30T11:26:49.726Z,28.40
2017-05-30T11:27:50.463Z,28.40
2017-05-30T11:28:50.858Z,28.50
2017-05-30T11:29:51.856Z,28.60
2017-05-30T11:30:52.655Z,28.70
2017-05-30T11:31:52.664Z,28.80
2017-05-30T11:32:53.049Z,28.90
2017-05-30T11:33:54.116Z,29.00
2017-05-30T11:34:54.787Z,29.10
2017-05-30T11:35:55.368Z,29.10
2017-05-30T11:51:51.411Z,30.60
2017-05-30T11:52:52.085Z,30.60
2017-05-30T11:53:52.465Z,30.60
2017-05-30T11:54:53.109Z,30.40
2017-05-30T11:55:53.410Z,30.30
2017-05-30T11:56:53.842Z,30.30
2017-05-30T11:57:54.608Z,30.30
2017-05-30T11:58:56.222Z,30.40
2017-05-30T11:59:56.865Z,30.40
2017-05-30T12:00:56.755Z,30.50
2017-05-30T12:01:57.264Z,30.60
2017-05-30T12:02:57.531Z,30.60
2017-05-30T12:03:57.872Z,30.80
2017-05-30T12:04:57.794Z,30.70
2017-05-30T12:05:58.146Z,30.70
2017-05-30T12:10:41.572Z,30.80
2017-05-30T12:11:41.599Z,30.80
2017-05-30T12:12:41.486Z,30.80
2017-05-30T12:13:41.328Z,30.90
2017-05-30T12:14:41.285Z,31.00
2017-05-30T12:15:41.191Z,31.10
2017-05-30T12:16:41.553Z,31.20
2017-05-30T12:17:42.511Z,31.30
2017-05-30T12:18:42.938Z,31.30
2017-05-30T12:19:42.892Z,31.40
2017-05-30T12:20:43.399Z,31.50
2017-05-30T12:28:58.414Z,30.50
2017-05-30T12:29:58.880Z,30.60
2017-05-30T12:30:59.201Z,30.60
2017-05-30T12:31:59.403Z,30.80
2017-05-30T12:32:59.809Z,30.70
2017-05-30T12:33:59.918Z,30.60
2017-05-30T12:35:00.670Z,30.50
2017-05-30T12:36:00.569Z,30.30
2017-05-30T12:48:12.062Z,30.00
2017-05-30T12:49:11.959Z,29.90
2017-05-30T12:50:12.439Z,29.90
2017-05-30T12:51:12.540Z,29.80
2017-05-30T13:01:31.879Z,29.40
2017-05-30T13:02:32.013Z,29.40
2017-05-30T13:03:32.724Z,29.50
2017-05-30T13:04:32.596Z,29.50
2017-05-30T13:05:33.429Z,29.50
2017-05-30T13:06:33.330Z,29.50
2017-05-30T13:09:45.830Z,29.40
2017-05-30T13:10:45.893Z,29.40
2017-05-30T13:11:47.111Z,29.20
2017-05-30T13:12:47.784Z,29.10
2017-05-30T13:13:48.525Z,28.90
2017-05-30T13:14:49.006Z,28.80
2017-05-30T13:15:49.711Z,28.60
2017-05-30T13:16:50.178Z,28.40
2017-05-30T13:17:50.341Z,28.20
2017-05-30T13:18:50.589Z,27.90
2017-05-30T13:19:50.459Z,27.70
2017-05-30T13:20:50.333Z,27.50
2017-05-30T13:21:50.227Z,27.40
2017-05-30T13:34:21.751Z,26.30
2017-05-30T13:35:21.637Z,26.40
2017-05-30T13:36:21.550Z,26.50
2017-05-30T13:39:29.875Z,26.70
2017-05-30T13:40:29.814Z,26.90
2017-05-30T13:41:29.728Z,27.00
2017-05-30T13:42:29.598Z,27.00
2017-05-30T13:43:29.803Z,27.00
2017-05-30T13:44:30.046Z,27.10
2017-05-30T13:45:30.025Z,27.10
2017-05-30T13:46:30.258Z,27.10
2017-05-30T13:47:30.439Z,27.10
2017-05-30T13:48:30.379Z,27.00
2017-05-30T13:49:30.230Z,26.70
2017-05-30T13:50:30.458Z,26.50
2017-05-30T13:51:30.384Z,26.30
2017-05-30T14:09:54.075Z,23.70
2017-05-30T14:10:53.934Z,23.60
2017-05-30T14:11:53.871Z,23.50
2017-05-30T14:12:53.844Z,23.60
2017-05-30T14:13:53.843Z,23.60
2017-05-30T14:14:53.793Z,23.60
2017-05-30T14:15:53.958Z,23.60
2017-05-30T14:16:53.910Z,23.60
2017-05-30T14:17:54.009Z,23.70
2017-05-30T14:18:53.883Z,23.70
2017-05-30T14:19:53.860Z,23.80
2017-05-30T14:20:53.797Z,23.90
2017-05-30T14:21:53.731Z,24.00
2017-05-30T14:23:30.472Z,24.00
2017-05-30T14:24:30.405Z,24.20
2017-05-30T14:25:30.614Z,24.10
2017-05-30T14:26:30.535Z,24.00
2017-05-30T14:27:30.451Z,24.00
2017-05-30T14:28:30.356Z,24.00
2017-05-30T14:29:30.324Z,24.10
2017-05-30T14:30:30.250Z,24.20
2017-05-30T14:31:30.183Z,24.30
2017-05-30T14:32:30.394Z,24.40
2017-05-30T14:33:30.385Z,24.40
2017-05-30T14:34:30.299Z,24.50
2017-05-30T14:35:30.146Z,24.60
2017-05-30T14:36:30.006Z,24.60
2017-05-30T14:37:30.234Z,24.60
2017-05-30T14:38:30.139Z,24.50
2017-05-30T14:39:30.054Z,24.50
2017-05-30T14:40:30.203Z,24.40
2017-05-30T14:41:30.128Z,24.40
2017-05-30T14:42:30.055Z,24.50
2017-05-30T14:43:29.985Z,24.70
2017-05-30T14:44:29.911Z,24.70
2017-05-30T14:45:29.850Z,24.80
2017-05-30T14:46:29.749Z,24.80
2017-05-30T14:47:29.641Z,24.80
2017-05-30T14:48:29.888Z,24.90
2017-05-30T14:49:30.066Z,25.00
2017-05-30T14:50:30.028Z,24.90
2017-05-30T14:51:30.013Z,25.00
2017-05-30T15:00:34.153Z,24.90
2017-05-30T15:01:34.120Z,24.90
2017-05-30T15:02:34.073Z,24.90
2017-05-30T15:03:34.082Z,24.90
2017-05-30T15:04:34.029Z,24.90
2017-05-30T15:05:34.182Z,24.80
2017-05-30T15:06:34.119Z,24.80
2017-05-30T15:07:34.000Z,24.80
2017-05-30T15:08:33.908Z,24.80
2017-05-30T15:09:33.803Z,24.80
2017-05-30T15:10:33.724Z,24.80
2017-05-30T15:11:33.655Z,24.60
2017-05-30T15:12:33.632Z,24.50
2017-05-30T15:13:33.582Z,24.60
2017-05-30T15:14:33.672Z,24.70
2017-05-30T15:15:33.831Z,24.70
2017-05-30T15:16:34.588Z,24.80
2017-05-30T15:17:34.999Z,24.70
2017-05-30T15:18:35.830Z,24.70
2017-05-30T15:19:36.344Z,24.70
2017-05-30T15:20:36.579Z,24.70
2017-05-30T15:21:37.111Z,24.70
2017-05-30T15:35:44.736Z,24.40
2017-05-30T15:36:46.123Z,24.30
2017-05-30T15:42:04.834Z,24.30
2017-05-30T15:43:05.024Z,24.30
2017-05-30T15:44:05.239Z,24.40
2017-05-30T15:45:05.449Z,24.40
2017-05-30T15:46:05.700Z,24.60
2017-05-30T15:47:05.699Z,24.70
2017-05-30T15:48:05.806Z,24.80
2017-05-30T15:49:05.737Z,24.80
2017-05-30T15:50:05.655Z,24.90
2017-05-30T15:51:05.804Z,25.10
2017-05-30T15:52:05.733Z,25.00
2017-05-30T16:13:36.660Z,22.90
2017-05-30T16:14:36.783Z,22.70
2017-05-30T16:15:36.886Z,22.60
2017-05-30T16:16:36.969Z,22.50
2017-05-30T16:17:37.013Z,22.40
2017-05-30T16:18:36.890Z,22.50
2017-05-30T16:19:36.860Z,22.60
2017-05-30T16:20:36.867Z,22.70
2017-05-30T16:21:36.725Z,22.80
2017-05-30T16:22:36.668Z,22.90
2017-05-30T16:44:44.984Z,22.30
2017-05-30T16:45:45.057Z,22.20
2017-05-30T16:46:45.056Z,22.20
2017-05-30T16:47:44.984Z,22.10
2017-05-30T16:48:45.017Z,22.10
2017-05-30T16:49:44.925Z,22.00
2017-05-30T16:50:45.107Z,22.00
2017-05-30T16:51:45.088Z,22.00
2017-05-30T16:52:45.011Z,21.90
2017-05-30T16:53:45.083Z,21.90
2017-05-30T16:54:45.091Z,21.90
2017-05-30T16:55:45.333Z,21.90
2017-05-30T16:56:45.283Z,22.00
2017-05-30T16:57:45.409Z,22.00
2017-05-30T16:58:45.288Z,22.00
2017-05-30T16:59:45.343Z,22.00
2017-05-30T17:00:45.262Z,22.00
2017-05-30T17:01:45.132Z,21.90
2017-05-30T17:02:45.013Z,21.90
2017-05-30T17:03:44.944Z,21.80
2017-05-30T17:04:44.818Z,21.80
2017-05-30T17:05:44.730Z,21.80
2017-05-30T17:06:44.663Z,21.80
2017-05-30T17:07:44.574Z,21.70
2017-05-30T17:12:28.766Z,21.50
2017-05-30T17:13:28.889Z,21.60
2017-05-30T17:14:28.857Z,21.50
2017-05-30T17:15:28.776Z,21.60
2017-05-30T17:16:28.674Z,21.60
2017-05-30T17:17:28.865Z,21.60
2017-05-30T17:18:28.789Z,21.60
2017-05-30T17:19:28.715Z,21.70
2017-05-30T17:20:28.675Z,21.70
2017-05-30T17:21:28.605Z,21.70
2017-05-30T17:22:28.462Z,21.70
2017-05-30T17:27:32.848Z,21.30
2017-05-30T17:28:32.759Z,21.20
2017-05-30T17:29:32.707Z,21.10
2017-05-30T17:30:32.631Z,21.10
2017-05-30T17:31:33.603Z,21.10
2017-05-30T17:32:33.513Z,21.10
2017-05-30T17:33:33.687Z,21.20
2017-05-30T17:34:33.906Z,21.20
2017-05-30T17:35:33.820Z,21.20
2017-05-30T17:36:33.710Z,21.20
